Currently 79°F in Pinon Hills, California, USA
79°F
79°F / 64°F
6 mph SW
0.00"
Saturday, September 19, 2020 8:41 AM PDT

Pinon Hills, California Climate Summary
Typical May Day

Normal High:    74.9°F (23.8°C)
Normal Low:    51.0°F (10.6°C)
Average:    62.8°F (17.1°C)

Hour    Temperature    Wind Speed    Humidity
12:00 AM    57°F (14°C)    3 mph    47%
1:00 AM    56°F (13°C)    3 mph    47%
2:00 AM    55°F (13°C)    3 mph    48%
3:00 AM    55°F (13°C)    3 mph    49%
4:00 AM    54°F (12°C)    3 mph    50%
5:00 AM    53°F (12°C)    3 mph    51%
6:00 AM    53°F (12°C)    3 mph    52%
7:00 AM    57°F (14°C)    2 mph    49%
8:00 AM    61°F (16°C)    3 mph    44%
9:00 AM    64°F (18°C)    4 mph    40%
10:00 AM    66°F (19°C)    4 mph    36%
11:00 AM    68°F (20°C)    4 mph    32%
12:00 PM    70°F (21°C)    4 mph    30%
1:00 PM    72°F (22°C)    4 mph    28%
2:00 PM    73°F (23°C)    5 mph    27%
3:00 PM    73°F (23°C)    5 mph    26%
4:00 PM    73°F (23°C)    6 mph    26%
5:00 PM    72°F (22°C)    6 mph    27%
6:00 PM    70°F (21°C)    6 mph    30%
7:00 PM    68°F (20°C)    5 mph    33%
8:00 PM    63°F (17°C)    4 mph    38%
9:00 PM    61°F (16°C)    3 mph    42%
10:00 PM    59°F (15°C)    3 mph    44%
11:00 PM    58°F (14°C)    3 mph    47%
 

The Pinon Hills, California weather pages are a service of WeatherCurrents.
Copyright ©2020  WeatherCurrents. All rights reserved. - Submit questions and comments - Privacy Policy